Time;durP1;ratioP1;P1;durP2;ratioP2;P2;SDS_P1;SDS_P2;PMS_P1;PMS_P2;Temp;Humidity;BMP_temperature;BMP_pressure;BME280_temperature;BME280_humidity;BME280_pressure;Samples;Min_cycle;Max_cycle;Signal;HPM_P1;HPM_P2
2021/09/26 00:00:42;;;;;;;11.70;7.93;;;13.40;99.90;;;;;;5067247;28;20033;-46
2021/09/26 00:03:08;;;;;;;12.40;8.13;;;13.40;99.90;;;;;;5069347;28;20056;-45
2021/09/26 00:05:33;;;;;;;9.85;7.22;;;13.50;99.90;;;;;;5070941;28;20528;-46
2021/09/26 00:07:59;;;;;;;11.65;7.68;;;13.50;99.90;;;;;;5070158;28;20020;-46
2021/09/26 00:10:24;;;;;;;10.68;8.20;;;13.40;99.90;;;;;;5070515;28;20124;-46
2021/09/26 00:12:50;;;;;;;10.85;8.30;;;13.40;99.90;;;;;;5070179;28;20029;-45
2021/09/26 00:15:19;;;;;;;8.48;7.43;;;13.30;99.90;;;;;;5070326;28;20279;-45
2021/09/26 00:17:45;;;;;;;9.85;8.25;;;13.40;99.90;;;;;;5068503;28;20027;-45
2021/09/26 00:20:11;;;;;;;10.38;8.45;;;13.30;99.90;;;;;;5070528;28;20032;-46
2021/09/26 00:22:37;;;;;;;10.55;8.20;;;13.40;99.90;;;;;;5070719;28;20036;-45
2021/09/26 00:25:04;;;;;;;10.30;7.90;;;13.40;99.90;;;;;;5055138;28;20055;-46
2021/09/26 00:27:29;;;;;;;10.25;8.20;;;13.40;99.90;;;;;;5046182;28;20063;-46
2021/09/26 00:29:55;;;;;;;9.88;8.07;;;13.40;99.90;;;;;;5061977;28;20060;-45
2021/09/26 00:32:20;;;;;;;13.00;9.40;;;13.40;99.90;;;;;;5070572;28;20063;-45
2021/09/26 00:34:46;;;;;;;13.57;8.23;;;13.50;99.90;;;;;;5046637;28;20025;-45
2021/09/26 00:37:12;;;;;;;12.02;9.05;;;13.50;99.90;;;;;;5039533;28;20555;-46
2021/09/26 00:39:38;;;;;;;11.57;8.77;;;13.60;99.90;;;;;;5039769;28;20025;-46
2021/09/26 00:42:04;;;;;;;10.95;9.18;;;13.60;99.90;;;;;;5050058;28;20024;-46
2021/09/26 00:44:29;;;;;;;9.88;8.75;;;13.60;99.90;;;;;;5049951;28;20036;-46
2021/09/26 00:46:56;;;;;;;11.75;9.38;;;13.70;99.90;;;;;;5049555;28;20468;-46
2021/09/26 00:49:22;;;;;;;10.43;8.45;;;13.70;99.90;;;;;;5049724;28;20021;-46
2021/09/26 00:51:49;;;;;;;13.05;9.80;;;13.70;99.90;;;;;;5050213;28;20463;-45
2021/09/26 00:54:15;;;;;;;11.05;8.52;;;13.70;99.90;;;;;;5049556;28;20574;-46
2021/09/26 00:56:41;;;;;;;10.10;7.93;;;13.70;99.90;;;;;;5042283;28;20471;-45
2021/09/26 00:59:07;;;;;;;13.75;8.98;;;13.70;99.90;;;;;;5061292;28;20012;-46
2021/09/26 01:01:32;;;;;;;15.70;9.68;;;13.60;99.90;;;;;;5069595;28;20531;-45
2021/09/26 01:04:00;;;;;;;11.75;8.73;;;13.70;99.90;;;;;;5068425;28;20055;-45
2021/09/26 01:06:38;;;;;;;11.02;8.05;;;13.60;99.90;;;;;;5069338;28;20075;-45
2021/09/26 01:09:11;;;;;;;10.40;8.38;;;13.60;99.90;;;;;;5069469;28;20056;-45
2021/09/26 01:11:48;;;;;;;12.27;8.82;;;13.60;99.90;;;;;;5069212;28;20029;-46
2021/09/26 01:14:25;;;;;;;10.15;8.23;;;13.60;99.90;;;;;;5067872;28;20032;-46
2021/09/26 01:17:18;;;;;;;9.73;7.63;;;13.60;99.90;;;;;;5068762;28;20025;-44
2021/09/26 01:20:08;;;;;;;9.70;7.75;;;13.60;99.90;;;;;;5068875;28;20040;-45
2021/09/26 01:22:52;;;;;;;9.23;7.10;;;13.50;99.90;;;;;;5067837;28;20394;-45
2021/09/26 01:25:35;;;;;;;9.63;7.25;;;13.50;99.90;;;;;;5069544;28;20028;-46
2021/09/26 01:28:31;;;;;;;9.35;6.85;;;13.40;99.90;;;;;;5057973;28;20043;-49
2021/09/26 01:31:05;;;;;;;11.18;7.13;;;13.40;99.90;;;;;;5067655;28;20446;-46
2021/09/26 01:33:49;;;;;;;7.90;7.10;;;13.40;99.90;;;;;;5067535;28;20028;-46
2021/09/26 01:36:32;;;;;;;10.98;7.60;;;13.40;99.90;;;;;;5069068;28;20481;-46
2021/09/26 01:39:00;;;;;;;8.00;6.75;;;13.30;99.90;;;;;;5067746;28;20044;-45
2021/09/26 01:41:48;;;;;;;8.85;7.70;;;13.30;99.90;;;;;;5051416;28;20386;-45
2021/09/26 01:44:36;;;;;;;9.02;7.35;;;13.20;99.90;;;;;;5047248;28;20107;-45
2021/09/26 01:47:05;;;;;;;8.80;7.07;;;13.30;99.90;;;;;;5062375;28;20027;-46
2021/09/26 01:49:40;;;;;;;10.85;7.78;;;13.20;99.90;;;;;;5051251;28;20380;-46
2021/09/26 01:52:11;;;;;;;9.32;7.85;;;13.20;99.90;;;;;;5062879;28;20028;-46
2021/09/26 01:54:38;;;;;;;9.88;7.03;;;13.20;99.90;;;;;;5049302;28;20029;-47
2021/09/26 01:57:04;;;;;;;13.77;8.10;;;13.10;99.90;;;;;;5046181;28;20498;-45
2021/09/26 01:59:30;;;;;;;11.80;8.52;;;13.20;99.90;;;;;;5058857;28;20032;-46
2021/09/26 02:01:56;;;;;;;11.75;8.65;;;13.20;99.90;;;;;;5068108;28;20475;-45
2021/09/26 02:04:25;;;;;;;12.07;8.80;;;13.20;99.90;;;;;;5068439;28;20032;-46
2021/09/26 02:06:52;;;;;;;10.35;8.30;;;13.20;99.90;;;;;;5067957;28;20445;-45
2021/09/26 02:09:18;;;;;;;10.40;8.30;;;13.20;99.90;;;;;;5067242;28;20586;-46
2021/09/26 02:11:45;;;;;;;10.88;7.85;;;13.20;99.90;;;;;;5068246;28;20029;-45
2021/09/26 02:14:12;;;;;;;10.65;8.38;;;13.20;99.90;;;;;;5068183;28;20462;-46
2021/09/26 02:16:39;;;;;;;14.32;9.63;;;13.20;99.90;;;;;;5066566;28;20156;-45
2021/09/26 02:19:06;;;;;;;10.95;9.10;;;13.20;99.90;;;;;;5067245;28;20085;-49
2021/09/26 02:21:32;;;;;;;10.93;8.35;;;13.10;99.90;;;;;;5068491;28;20020;-46
2021/09/26 02:23:59;;;;;;;10.30;8.13;;;13.10;99.90;;;;;;5067084;28;20032;-46
2021/09/26 02:26:26;;;;;;;10.23;8.20;;;13.10;99.90;;;;;;5067930;28;20036;-45
2021/09/26 02:28:51;;;;;;;9.77;7.72;;;13.10;99.90;;;;;;5053743;28;20116;-45
2021/09/26 02:31:18;;;;;;;16.23;9.00;;;13.00;99.90;;;;;;5068435;28;20108;-47
2021/09/26 02:33:46;;;;;;;11.40;7.65;;;13.00;99.90;;;;;;5068593;28;20031;-45
2021/09/26 02:36:13;;;;;;;10.88;7.40;;;13.00;99.90;;;;;;5068154;28;20429;-46
2021/09/26 02:38:39;;;;;;;7.85;7.05;;;12.90;99.90;;;;;;5066563;28;20095;-48
2021/09/26 02:41:14;;;;;;;7.85;7.05;;;12.90;99.90;;;;;;5068291;28;20190;-47
2021/09/26 02:43:52;;;;;;;11.88;8.23;;;12.90;99.90;;;;;;5066818;28;20031;-48
2021/09/26 02:46:26;;;;;;;9.57;8.07;;;12.80;99.90;;;;;;5066797;28;20028;-46
2021/09/26 02:48:52;;;;;;;10.52;7.47;;;12.80;99.90;;;;;;5067669;28;20023;-48
2021/09/26 02:51:18;;;;;;;11.45;7.28;;;12.70;99.90;;;;;;5068205;28;20060;-45
2021/09/26 02:53:46;;;;;;;9.25;7.50;;;12.70;99.90;;;;;;5066778;28;20031;-49
2021/09/26 02:56:12;;;;;;;9.10;7.38;;;12.70;99.90;;;;;;5067958;28;20104;-47
2021/09/26 02:58:39;;;;;;;8.70;7.35;;;12.60;99.90;;;;;;5054343;28;20032;-46
2021/09/26 03:01:05;;;;;;;10.50;7.22;;;12.60;99.90;;;;;;5067601;28;20023;-47
2021/09/26 03:03:30;;;;;;;11.13;7.97;;;12.70;99.90;;;;;;5067892;28;20021;-48
2021/09/26 03:05:56;;;;;;;9.02;7.38;;;12.60;99.90;;;;;;5067975;28;20359;-47
2021/09/26 03:08:23;;;;;;;9.98;7.72;;;12.50;99.90;;;;;;5067288;28;20190;-46
2021/09/26 03:10:54;;;;;;;8.57;7.63;;;12.60;99.90;;;;;;5067837;28;20028;-46
2021/09/26 03:13:20;;;;;;;9.60;7.03;;;12.50;99.90;;;;;;5069661;28;20536;-45
2021/09/26 03:15:45;;;;;;;12.10;7.88;;;12.50;99.90;;;;;;5071531;28;20106;-46
2021/09/26 03:18:11;;;;;;;9.45;6.78;;;12.50;99.90;;;;;;5070993;28;20104;-45
2021/09/26 03:20:37;;;;;;;10.98;8.07;;;12.40;99.90;;;;;;5071457;28;20016;-46
2021/09/26 03:23:03;;;;;;;10.23;7.65;;;12.50;99.90;;;;;;5071544;28;20025;-45
2021/09/26 03:25:29;;;;;;;12.32;8.75;;;12.50;99.90;;;;;;5071478;28;20025;-48
2021/09/26 03:27:56;;;;;;;9.82;8.10;;;12.50;99.90;;;;;;5064272;28;20486;-45
2021/09/26 03:30:22;;;;;;;9.95;7.38;;;12.50;99.90;;;;;;5064931;28;20068;-45
2021/09/26 03:32:47;;;;;;;10.15;7.57;;;12.40;99.90;;;;;;5069794;28;20074;-45
2021/09/26 03:35:14;;;;;;;11.07;8.07;;;12.40;99.90;;;;;;5071289;28;20037;-45
2021/09/26 03:37:40;;;;;;;9.30;7.43;;;12.40;99.90;;;;;;5070731;28;20020;-45
2021/09/26 03:40:07;;;;;;;9.95;7.40;;;12.30;99.90;;;;;;5071568;28;20128;-47
2021/09/26 03:42:33;;;;;;;9.70;7.72;;;12.30;99.90;;;;;;5069619;28;20111;-46
2021/09/26 03:44:58;;;;;;;8.98;7.90;;;12.30;99.90;;;;;;5071120;28;20099;-46
2021/09/26 03:47:24;;;;;;;12.35;8.05;;;12.30;99.90;;;;;;5069181;28;20225;-46
2021/09/26 03:49:50;;;;;;;9.60;8.05;;;12.30;99.90;;;;;;5071457;28;20028;-45
2021/09/26 03:52:16;;;;;;;9.20;7.38;;;12.30;99.90;;;;;;5071150;28;20029;-46
2021/09/26 03:54:41;;;;;;;9.80;8.00;;;12.40;99.90;;;;;;5070961;28;20104;-46
2021/09/26 03:57:07;;;;;;;10.93;8.52;;;12.30;99.90;;;;;;5066566;28;20028;-45
2021/09/26 03:59:33;;;;;;;10.77;8.45;;;12.30;99.90;;;;;;5062819;28;20233;-46
2021/09/26 04:01:59;;;;;;;10.75;8.57;;;12.30;99.90;;;;;;5071480;28;20029;-46
2021/09/26 04:04:24;;;;;;;9.23;8.15;;;12.30;99.90;;;;;;5071188;28;20111;-46
2021/09/26 04:06:50;;;;;;;9.57;8.57;;;12.20;99.90;;;;;;5069060;28;20085;-49
2021/09/26 04:09:17;;;;;;;11.88;9.00;;;12.20;99.90;;;;;;5071042;28;20074;-48
2021/09/26 04:11:43;;;;;;;11.70;8.40;;;12.20;99.90;;;;;;5069488;28;20024;-45
2021/09/26 04:14:09;;;;;;;10.68;8.18;;;12.20;99.90;;;;;;5069118;28;20396;-45
2021/09/26 04:16:34;;;;;;;10.68;8.82;;;12.20;99.90;;;;;;5070583;28;20100;-45
2021/09/26 04:19:00;;;;;;;11.73;9.15;;;12.20;99.90;;;;;;5070364;28;20490;-45
2021/09/26 04:21:26;;;;;;;12.30;8.90;;;12.20;99.90;;;;;;5069413;28;20024;-46
2021/09/26 04:23:52;;;;;;;14.95;9.00;;;12.20;99.90;;;;;;5070296;28;20418;-45
2021/09/26 04:26:19;;;;;;;11.18;8.57;;;12.20;99.90;;;;;;5070327;28;20025;-46
2021/09/26 04:28:44;;;;;;;11.30;9.05;;;12.20;99.90;;;;;;5059228;28;20017;-46
2021/09/26 04:31:10;;;;;;;12.73;9.05;;;12.20;99.90;;;;;;5070607;28;20035;-46
2021/09/26 04:33:36;;;;;;;11.65;9.00;;;12.20;99.90;;;;;;5070504;28;20402;-46
2021/09/26 04:36:02;;;;;;;9.25;8.02;;;12.10;99.90;;;;;;5070350;28;20123;-47
2021/09/26 04:38:27;;;;;;;10.63;9.15;;;12.10;99.90;;;;;;5069828;28;20032;-47
2021/09/26 04:40:53;;;;;;;14.30;9.57;;;12.10;99.90;;;;;;5068927;28;20029;-48
2021/09/26 04:43:19;;;;;;;13.73;9.68;;;12.10;99.90;;;;;;5069717;28;20017;-46
2021/09/26 04:45:45;;;;;;;11.23;9.00;;;12.10;99.90;;;;;;5068669;28;20123;-49
2021/09/26 04:48:11;;;;;;;12.52;9.18;;;12.10;99.90;;;;;;5069527;28;20355;-46
2021/09/26 04:50:36;;;;;;;12.65;9.43;;;12.00;99.90;;;;;;5070201;28;20017;-49
2021/09/26 04:53:02;;;;;;;15.52;10.35;;;12.00;99.90;;;;;;5068573;28;20024;-47
2021/09/26 04:55:27;;;;;;;14.02;9.43;;;12.00;99.90;;;;;;5069703;28;20318;-49
2021/09/26 04:57:55;;;;;;;15.35;10.25;;;12.10;99.90;;;;;;5052348;28;20017;-46
2021/09/26 05:00:22;;;;;;;11.98;8.82;;;12.00;99.90;;;;;;5061356;28;20032;-47
2021/09/26 05:02:47;;;;;;;12.00;9.38;;;12.00;99.90;;;;;;5068550;28;20350;-45
2021/09/26 05:05:13;;;;;;;11.35;9.07;;;12.00;99.90;;;;;;5069821;28;20517;-46
2021/09/26 05:07:39;;;;;;;11.32;8.90;;;12.00;99.90;;;;;;5069042;28;20336;-47
2021/09/26 05:10:05;;;;;;;12.13;8.93;;;12.00;99.90;;;;;;5070080;28;20124;-47
2021/09/26 05:12:31;;;;;;;12.32;10.05;;;12.00;99.90;;;;;;5069457;28;20067;-46
2021/09/26 05:15:01;;;;;;;15.00;10.57;;;12.10;99.90;;;;;;5069662;28;20060;-46
2021/09/26 05:17:31;;;;;;;13.52;10.63;;;12.00;99.90;;;;;;5067680;28;20509;-45
2021/09/26 05:19:56;;;;;;;15.10;10.75;;;12.10;99.90;;;;;;5069580;28;20071;-50
2021/09/26 05:22:22;;;;;;;18.38;10.55;;;12.10;99.90;;;;;;5069938;28;20060;-46
2021/09/26 05:24:48;;;;;;;18.20;12.10;;;12.10;99.90;;;;;;5069437;28;20020;-47
2021/09/26 05:27:13;;;;;;;15.00;11.68;;;12.10;99.90;;;;;;5061475;28;20022;-46
2021/09/26 05:29:40;;;;;;;13.00;10.27;;;12.10;99.90;;;;;;5053414;28;20025;-46
2021/09/26 05:32:07;;;;;;;15.23;10.57;;;12.20;99.90;;;;;;5069143;28;20099;-47
2021/09/26 05:34:32;;;;;;;13.93;10.35;;;12.20;99.90;;;;;;5067437;28;20106;-49
2021/09/26 05:36:58;;;;;;;14.15;10.82;;;12.30;99.90;;;;;;5066735;28;20426;-49
2021/09/26 05:39:25;;;;;;;13.57;10.63;;;12.30;99.90;;;;;;5067787;28;20224;-49
2021/09/26 05:41:51;;;;;;;14.93;10.70;;;12.30;99.90;;;;;;5067681;28;20021;-46
2021/09/26 05:44:17;;;;;;;15.32;11.43;;;12.40;99.90;;;;;;5068828;28;20525;-47
2021/09/26 05:46:43;;;;;;;14.75;11.50;;;12.40;99.90;;;;;;5068406;28;20116;-47
2021/09/26 05:49:08;;;;;;;16.67;11.55;;;12.50;99.90;;;;;;5067694;28;20255;-46
2021/09/26 05:51:34;;;;;;;16.52;11.55;;;12.60;99.90;;;;;;5067708;28;20378;-48
2021/09/26 05:53:59;;;;;;;17.30;12.73;;;12.60;99.90;;;;;;5068544;28;20032;-47
2021/09/26 05:56:25;;;;;;;16.98;12.70;;;12.70;99.90;;;;;;5068477;28;20507;-45
2021/09/26 05:58:50;;;;;;;21.85;15.25;;;12.80;99.90;;;;;;5051368;28;20023;-47
2021/09/26 06:01:16;;;;;;;22.85;15.43;;;12.90;99.90;;;;;;5061418;28;20013;-48
2021/09/26 06:03:41;;;;;;;25.13;16.67;;;13.00;99.90;;;;;;5068591;28;20024;-47
2021/09/26 06:06:08;;;;;;;22.80;16.63;;;13.00;99.90;;;;;;5068447;28;20017;-46
2021/09/26 06:08:34;;;;;;;21.88;15.68;;;13.20;99.90;;;;;;5068090;28;20032;-47
2021/09/26 06:10:59;;;;;;;20.73;14.35;;;13.20;99.90;;;;;;5068563;28;20028;-46
2021/09/26 06:13:25;;;;;;;18.95;14.45;;;13.30;99.90;;;;;;5068350;28;20371;-47
2021/09/26 06:15:51;;;;;;;23.83;17.08;;;13.40;99.90;;;;;;5068365;28;20032;-46
2021/09/26 06:18:18;;;;;;;27.10;17.85;;;13.50;99.90;;;;;;5067586;28;20048;-49
2021/09/26 06:20:47;;;;;;;26.90;18.60;;;13.60;99.90;;;;;;5068469;28;20438;-47
2021/09/26 06:23:13;;;;;;;27.52;20.33;;;13.60;99.90;;;;;;5067209;28;20059;-47
2021/09/26 06:25:39;;;;;;;29.90;20.27;;;13.80;99.90;;;;;;5067112;28;20060;-47
2021/09/26 06:28:04;;;;;;;33.70;21.13;;;13.80;99.90;;;;;;5055057;28;20020;-46
2021/09/26 06:30:30;;;;;;;28.88;21.27;;;13.90;99.90;;;;;;5060396;28;20078;-47
2021/09/26 06:32:56;;;;;;;31.08;22.05;;;14.00;99.90;;;;;;5067346;28;20028;-48
2021/09/26 06:35:21;;;;;;;32.85;22.77;;;14.10;99.90;;;;;;5067120;28;20433;-46
2021/09/26 06:37:47;;;;;;;30.90;21.35;;;14.20;99.90;;;;;;5066734;28;20032;-45
2021/09/26 06:40:13;;;;;;;33.25;21.92;;;14.30;99.90;;;;;;5066896;28;20028;-49
2021/09/26 06:42:39;;;;;;;31.08;20.75;;;14.40;99.90;;;;;;5068381;28;20063;-46
2021/09/26 06:45:07;;;;;;;27.23;18.92;;;14.50;99.90;;;;;;5068363;28;20072;-46
2021/09/26 06:47:32;;;;;;;23.92;17.13;;;14.60;99.90;;;;;;5069085;28;20049;-47
2021/09/26 06:49:58;;;;;;;19.02;15.65;;;14.60;99.90;;;;;;5072923;28;20395;-48
2021/09/26 06:52:23;;;;;;;23.20;16.70;;;14.70;99.90;;;;;;5072860;28;20029;-46
2021/09/26 06:54:49;;;;;;;21.52;15.98;;;14.80;99.90;;;;;;5072312;28;20040;-49
2021/09/26 06:57:14;;;;;;;22.67;17.58;;;14.80;99.90;;;;;;5065519;28;20032;-47
2021/09/26 06:59:40;;;;;;;20.42;15.73;;;15.00;99.90;;;;;;5056198;28;20029;-46
2021/09/26 07:02:06;;;;;;;20.52;16.27;;;15.00;99.90;;;;;;5071705;28;20493;-45
2021/09/26 07:04:32;;;;;;;23.77;17.05;;;15.10;99.90;;;;;;5072006;28;20021;-46
2021/09/26 07:06:57;;;;;;;22.15;16.73;;;15.20;99.90;;;;;;5070044;28;20389;-47
2021/09/26 07:09:23;;;;;;;20.75;16.08;;;15.30;99.90;;;;;;5071978;28;20040;-44
2021/09/26 07:11:48;;;;;;;23.70;17.95;;;15.40;99.90;;;;;;5072091;28;20534;-44
2021/09/26 07:14:14;;;;;;;22.52;17.35;;;15.50;99.90;;;;;;5071418;28;20024;-44
2021/09/26 07:16:39;;;;;;;23.90;17.23;;;15.60;99.90;;;;;;5071008;28;20036;-45
2021/09/26 07:19:05;;;;;;;21.30;15.98;;;15.60;99.90;;;;;;5071664;28;20082;-44
2021/09/26 07:21:31;;;;;;;21.95;15.43;;;15.70;99.90;;;;;;5071827;28;20059;-45
2021/09/26 07:23:56;;;;;;;19.92;16.40;;;15.80;99.90;;;;;;5071795;28;20435;-44
2021/09/26 07:26:22;;;;;;;21.75;16.48;;;16.00;99.90;;;;;;5071774;28;20033;-44
2021/09/26 07:28:48;;;;;;;21.25;15.45;;;16.10;99.90;;;;;;5056258;28;20437;-45
2021/09/26 07:31:14;;;;;;;20.35;15.45;;;16.30;99.90;;;;;;5064174;28;20035;-44
2021/09/26 07:33:40;;;;;;;20.73;16.20;;;16.40;99.90;;;;;;5071731;28;20063;-44
2021/09/26 07:36:07;;;;;;;21.13;15.23;;;16.40;99.90;;;;;;5071987;28;20068;-45
2021/09/26 07:38:32;;;;;;;17.73;14.20;;;16.60;99.90;;;;;;5071049;28;20085;-45
2021/09/26 07:40:58;;;;;;;15.68;12.73;;;16.60;99.90;;;;;;5071527;28;20275;-44
2021/09/26 07:43:25;;;;;;;17.98;13.68;;;16.80;99.90;;;;;;5071416;28;20553;-44
2021/09/26 07:45:51;;;;;;;15.98;13.90;;;16.90;99.90;;;;;;5071478;28;20103;-45
2021/09/26 07:48:17;;;;;;;21.35;15.65;;;17.10;99.90;;;;;;5069320;28;20475;-47
2021/09/26 07:50:42;;;;;;;13.88;11.95;;;17.20;99.90;;;;;;5071113;28;20081;-47
2021/09/26 07:53:08;;;;;;;19.80;14.13;;;17.30;99.90;;;;;;5070935;28;20047;-45
2021/09/26 07:55:33;;;;;;;16.77;13.15;;;17.40;99.90;;;;;;5070997;28;20035;-47
2021/09/26 07:57:59;;;;;;;15.98;12.35;;;17.60;99.90;;;;;;5056257;28;20021;-45
2021/09/26 08:00:24;;;;;;;15.65;12.23;;;17.60;99.90;;;;;;5062479;28;20038;-44
2021/09/26 08:02:50;;;;;;;15.57;10.95;;;17.70;99.90;;;;;;5070821;28;20070;-45
2021/09/26 08:05:15;;;;;;;14.55;11.95;;;17.80;99.90;;;;;;5070715;28;20036;-45
2021/09/26 08:07:41;;;;;;;18.75;12.38;;;17.90;99.90;;;;;;5070076;28;20112;-45
2021/09/26 08:10:08;;;;;;;15.82;11.52;;;17.90;99.90;;;;;;5070737;28;20104;-44
2021/09/26 08:12:34;;;;;;;13.93;11.02;;;18.00;99.90;;;;;;5070650;28;20483;-45
2021/09/26 08:14:59;;;;;;;11.85;10.50;;;18.10;99.90;;;;;;5070317;28;20106;-45
2021/09/26 08:17:25;;;;;;;12.32;10.27;;;18.10;99.90;;;;;;5069932;28;20020;-46
2021/09/26 08:19:51;;;;;;;12.85;10.88;;;18.10;99.90;;;;;;5070583;28;20016;-44
2021/09/26 08:22:17;;;;;;;12.45;10.40;;;18.20;99.90;;;;;;5070407;28;20021;-45
2021/09/26 08:24:42;;;;;;;13.48;10.48;;;18.40;99.90;;;;;;5068986;28;20037;-44
2021/09/26 08:27:08;;;;;;;12.02;9.45;;;18.60;99.90;;;;;;5069367;28;20371;-44
2021/09/26 08:29:34;;;;;;;10.15;8.90;;;18.80;99.90;;;;;;5053642;28;20364;-45
2021/09/26 08:32:00;;;;;;;11.45;9.13;;;18.90;99.90;;;;;;5067775;28;20078;-45
2021/09/26 08:34:26;;;;;;;11.50;9.07;;;19.10;99.90;;;;;;5070178;28;20028;-47
2021/09/26 08:36:52;;;;;;;11.75;9.40;;;19.20;99.90;;;;;;5067934;28;20017;-44
2021/09/26 08:39:18;;;;;;;11.30;9.15;;;19.30;99.90;;;;;;5070167;28;20123;-44
2021/09/26 08:41:44;;;;;;;13.50;9.05;;;19.30;99.90;;;;;;5052078;28;20027;-47
2021/09/26 08:44:10;;;;;;;10.25;8.48;;;19.30;99.90;;;;;;5069751;28;20066;-45
2021/09/26 08:46:36;;;;;;;10.93;8.80;;;19.20;99.90;;;;;;5069450;28;20060;-45
2021/09/26 08:49:02;;;;;;;9.63;7.68;;;19.20;99.90;;;;;;5069977;28;20454;-44
2021/09/26 08:51:29;;;;;;;9.40;8.23;;;19.20;99.90;;;;;;5069885;28;20024;-46
2021/09/26 08:53:55;;;;;;;12.32;8.63;;;19.20;99.90;;;;;;5069861;28;20033;-45
2021/09/26 08:56:21;;;;;;;12.75;9.43;;;19.20;99.90;;;;;;5069761;28;20157;-45
2021/09/26 08:58:48;;;;;;;10.25;8.13;;;19.30;99.90;;;;;;5056858;28;20483;-45
2021/09/26 09:01:14;;;;;;;10.55;8.80;;;19.40;99.90;;;;;;5062247;28;20020;-46
2021/09/26 09:03:40;;;;;;;8.60;7.75;;;19.50;99.90;;;;;;5069648;28;20017;-44
2021/09/26 09:06:05;;;;;;;8.45;7.38;;;19.70;99.90;;;;;;5069336;28;20056;-45
2021/09/26 09:08:39;;;;;;;9.25;7.93;;;19.80;99.90;;;;;;5069107;28;20436;-45
2021/09/26 09:11:04;;;;;;;9.55;7.60;;;20.10;99.90;;;;;;5069439;28;20647;-45
2021/09/26 09:13:39;;;;;;;7.80;6.95;;;20.40;99.90;;;;;;5069130;28;20048;-44
2021/09/26 09:16:08;;;;;;;11.70;7.10;;;21.10;99.90;;;;;;5069444;28;20028;-45
2021/09/26 09:18:43;;;;;;;7.20;6.38;;;22.40;99.90;;;;;;5068864;28;20028;-45
2021/09/26 09:21:29;;;;;;;8.73;6.53;;;23.00;99.90;;;;;;5069375;28;20019;-45
2021/09/26 09:24:25;;;;;;;12.05;6.72;;;23.40;99.90;;;;;;5068006;28;20505;-44
2021/09/26 09:26:52;;;;;;;8.90;6.18;;;23.70;99.90;;;;;;5067295;28;20028;-45
2021/09/26 09:29:20;;;;;;;9.50;7.07;;;24.10;99.90;;;;;;5054951;28;20021;-45
2021/09/26 09:31:51;;;;;;;18.00;6.65;;;24.20;99.90;;;;;;5064776;28;20047;-45
2021/09/26 09:34:37;;;;;;;8.50;7.10;;;24.10;99.90;;;;;;5069372;28;20028;-44
2021/09/26 09:37:20;;;;;;;9.90;7.55;;;23.90;99.90;;;;;;5068620;28;20017;-45
2021/09/26 09:40:15;;;;;;;8.40;6.97;;;23.80;99.90;;;;;;5069218;28;20024;-45
2021/09/26 09:42:52;;;;;;;7.07;6.35;;;24.10;99.90;;;;;;5068884;28;20024;-45
2021/09/26 09:45:32;;;;;;;7.60;6.80;;;24.00;99.90;;;;;;5069383;28;20021;-44
2021/09/26 09:48:24;;;;;;;10.00;6.43;;;24.30;99.90;;;;;;5068284;28;20056;-46
2021/09/26 09:50:51;;;;;;;8.95;6.05;;;25.90;99.50;;;;;;5068890;28;20028;-47
2021/09/26 09:53:26;;;;;;;7.13;6.40;;;27.70;96.40;;;;;;5067459;28;20024;-46
2021/09/26 09:55:56;;;;;;;7.80;5.80;;;29.20;92.00;;;;;;5068518;28;20042;-46
2021/09/26 09:58:22;;;;;;;6.25;5.65;;;30.40;85.60;;;;;;5059990;28;20509;-47
2021/09/26 10:00:53;;;;;;;6.85;5.00;;;31.10;81.20;;;;;;5060312;28;20025;-46
2021/09/26 10:03:34;;;;;;;5.18;4.60;;;31.50;76.60;;;;;;5069005;28;20163;-46
2021/09/26 10:06:00;;;;;;;5.88;5.07;;;32.40;72.30;;;;;;5068639;28;20021;-47
2021/09/26 10:08:34;;;;;;;7.43;5.22;;;33.40;67.10;;;;;;5068510;28;20044;-49
2021/09/26 10:11:07;;;;;;;5.10;4.60;;;33.70;64.20;;;;;;5068674;28;20020;-47
2021/09/26 10:13:36;;;;;;;7.70;4.93;;;33.40;64.40;;;;;;5068253;28;20035;-49
2021/09/26 10:16:06;;;;;;;5.60;4.72;;;32.80;64.30;;;;;;5066869;28;20021;-47
2021/09/26 10:18:33;;;;;;;4.80;4.30;;;33.20;64.00;;;;;;5068157;28;20032;-47
2021/09/26 10:21:00;;;;;;;5.70;5.03;;;33.90;61.80;;;;;;5067950;28;20032;-46
2021/09/26 10:23:26;;;;;;;6.65;4.50;;;34.20;62.20;;;;;;5068326;28;20040;-47
2021/09/26 10:25:54;;;;;;;7.32;4.70;;;34.30;60.70;;;;;;5068562;28;20494;-48
2021/09/26 10:28:21;;;;;;;6.82;4.72;;;34.60;60.10;;;;;;5061795;28;20040;-47
2021/09/26 10:30:48;;;;;;;5.43;4.65;;;35.10;59.10;;;;;;5060073;28;20024;-49
2021/09/26 10:33:14;;;;;;;5.35;4.43;;;35.50;59.60;;;;;;5068399;28;20052;-49
2021/09/26 10:35:40;;;;;;;6.20;5.60;;;35.60;57.80;;;;;;5068226;28;20390;-47
2021/09/26 10:38:10;;;;;;;5.45;4.60;;;35.80;56.40;;;;;;5067685;28;20021;-47
2021/09/26 10:40:39;;;;;;;5.80;4.35;;;35.80;56.80;;;;;;5068357;28;20025;-48
2021/09/26 10:43:20;;;;;;;4.55;4.15;;;35.50;54.80;;;;;;5068040;28;20020;-47
2021/09/26 10:45:46;;;;;;;4.53;4.13;;;36.20;53.40;;;;;;5068216;28;20028;-47
2021/09/26 10:48:12;;;;;;;4.93;4.35;;;36.70;52.70;;;;;;5067429;28;20482;-50
2021/09/26 10:50:40;;;;;;;6.63;4.13;;;37.20;52.10;;;;;;5066824;28;20056;-50
2021/09/26 10:53:08;;;;;;;4.68;4.18;;;37.70;50.50;;;;;;5068015;28;20031;-47
2021/09/26 10:55:34;;;;;;;8.10;4.30;;;37.70;51.00;;;;;;5068082;28;20029;-47
2021/09/26 10:58:05;;;;;;;6.25;3.90;;;38.00;48.90;;;;;;5061243;28;20559;-48
2021/09/26 11:00:37;;;;;;;4.95;3.72;;;36.90;48.80;;;;;;5059662;28;20548;-48
2021/09/26 11:03:08;;;;;;;4.90;3.97;;;36.90;49.50;;;;;;5068142;28;20032;-47
2021/09/26 11:05:51;;;;;;;5.22;4.15;;;36.60;48.50;;;;;;5068039;28;20551;-48
2021/09/26 11:08:26;;;;;;;4.72;3.38;;;36.00;49.10;;;;;;5067445;28;20068;-50
2021/09/26 11:10:53;;;;;;;4.18;3.67;;;36.30;48.60;;;;;;5068022;28;20500;-48
2021/09/26 11:13:32;;;;;;;4.05;3.65;;;36.40;49.30;;;;;;5066295;28;20037;-48
2021/09/26 11:16:03;;;;;;;4.70;3.70;;;35.90;48.00;;;;;;5068033;28;20398;-47
2021/09/26 11:18:48;;;;;;;4.25;3.88;;;35.90;48.70;;;;;;5067319;28;20786;-48
2021/09/26 11:21:40;;;;;;;4.45;3.70;;;34.80;50.30;;;;;;5068060;28;20051;-47
2021/09/26 11:24:10;;;;;;;4.13;3.50;;;34.80;52.70;;;;;;5065369;28;20111;-47
2021/09/26 11:27:00;;;;;;;4.10;3.45;;;35.10;51.10;;;;;;5067537;28;20025;-47
2021/09/26 11:29:27;;;;;;;5.90;3.67;;;35.50;49.50;;;;;;5058505;28;20041;-48
2021/09/26 11:31:53;;;;;;;4.10;3.40;;;35.30;51.40;;;;;;5065676;28;20119;-48
2021/09/26 11:34:36;;;;;;;3.67;3.20;;;35.80;50.90;;;;;;5070297;28;20021;-49
2021/09/26 11:37:03;;;;;;;4.85;3.70;;;36.50;47.90;;;;;;5071078;28;20189;-50
2021/09/26 11:39:29;;;;;;;5.20;3.42;;;36.60;49.30;;;;;;5071775;28;20021;-48
2021/09/26 11:41:56;;;;;;;4.22;3.45;;;36.60;49.80;;;;;;5071473;28;20093;-48
2021/09/26 11:44:21;;;;;;;4.35;3.38;;;36.90;48.20;;;;;;5069818;28;20055;-48
2021/09/26 11:46:49;;;;;;;4.60;3.83;;;37.30;47.70;;;;;;5070676;28;20040;-48
2021/09/26 11:49:14;;;;;;;5.15;3.88;;;35.70;49.90;;;;;;5071404;28;20502;-49
2021/09/26 11:51:40;;;;;;;6.05;3.92;;;36.00;50.40;;;;;;5071290;28;20116;-48
2021/09/26 11:54:06;;;;;;;5.13;3.83;;;35.40;49.70;;;;;;5071212;28;20037;-50
2021/09/26 11:56:37;;;;;;;4.63;4.20;;;36.10;49.10;;;;;;5071083;28;20028;-47
2021/09/26 11:59:14;;;;;;;4.38;3.97;;;36.20;48.80;;;;;;5062990;28;20098;-47
2021/09/26 12:01:42;;;;;;;4.35;3.92;;;36.00;49.50;;;;;;5067209;28;20031;-48
2021/09/26 12:04:20;;;;;;;7.38;4.38;;;35.40;48.80;;;;;;5070778;28;20492;-48
2021/09/26 12:06:46;;;;;;;7.30;4.55;;;34.70;49.20;;;;;;5070206;28;20028;-48
2021/09/26 12:09:34;;;;;;;5.82;4.07;;;33.60;51.50;;;;;;5070760;28;20512;-47
2021/09/26 12:12:02;;;;;;;6.45;3.72;;;34.10;52.40;;;;;;5070871;28;20017;-47
2021/09/26 12:14:29;;;;;;;10.43;4.43;;;34.40;51.10;;;;;;5070526;28;20077;-47
2021/09/26 12:16:56;;;;;;;9.52;4.55;;;34.50;51.90;;;;;;5070122;28;20099;-46
2021/09/26 12:19:22;;;;;;;4.93;4.43;;;33.30;53.20;;;;;;5070919;28;20031;-46
2021/09/26 12:22:07;;;;;;;9.25;5.07;;;33.10;53.50;;;;;;5070845;28;20108;-48
2021/09/26 12:25:02;;;;;;;7.38;4.72;;;32.30;54.60;;;;;;5070544;28;20055;-46
2021/09/26 12:27:36;;;;;;;7.18;4.30;;;32.70;54.80;;;;;;5069073;28;20430;-46
2021/09/26 12:30:20;;;;;;;8.15;4.70;;;32.20;55.80;;;;;;5060941;28;20056;-46
2021/09/26 12:33:02;;;;;;;5.20;4.70;;;31.90;55.30;;;;;;5069349;28;20063;-46
2021/09/26 12:35:41;;;;;;;5.93;4.68;;;31.90;56.60;;;;;;5070403;28;20024;-47
2021/09/26 12:38:15;;;;;;;4.63;4.22;;;32.20;56.80;;;;;;5069592;28;20052;-49
2021/09/26 12:40:51;;;;;;;6.80;4.55;;;32.00;55.80;;;;;;5052318;28;20467;-47
2021/09/26 12:43:22;;;;;;;5.53;4.25;;;31.90;55.70;;;;;;5069914;28;20461;-46
2021/09/26 12:45:48;;;;;;;4.70;4.30;;;32.30;58.00;;;;;;5069652;28;20471;-46